Arklow Spray — C6VK8 — position and weather

sailwx.info

Track history (hours):
 
Tides and Currents Weather Stations Pressure Air Temp Water Temp Dewpoint Dewpoint Depression Visibility Wind Speed Wind Dir Waves Ship Positions

Arklow Spray

Last reported at 2014-Sep-03 04:26 UTC. Time now 2014-Sep-03 04:46 UTC.
Position N 51°54' E 004°34'.

Length 90 m; draft 4.9 m.

Type: Cargo ship. MMSI: 309914000.

Date/timePositionNaut miles runAvg speedWind from/ knotsBaromVisibWave heightAir tempDewpointWater temp
2014-Sep-03 04:26N 51°54' E 004°34'0 0.0
2014-Sep-03 03:29N 51°54' E 004°34'0 0.0
2014-Sep-03 02:29N 51°54' E 004°34'0 0.0
2014-Sep-03 01:29N 51°54' E 004°34'0 0.0
2014-Sep-03 00:32N 51°54' E 004°34'0 0.0
2014-Sep-02 23:29N 51°54' E 004°34'0 0.0
2014-Sep-02 22:32N 51°54' E 004°34'0 0.0
2014-Sep-02 21:32N 51°54' E 004°34'0 0.0
2014-Sep-02 20:32N 51°54' E 004°34'0 0.0
2014-Sep-02 19:32N 51°54' E 004°34'0 0.0
2014-Sep-02 18:32N 51°54' E 004°34'0 0.0
2014-Sep-02 17:32N 51°54' E 004°34'0 0.0
2014-Sep-02 16:32N 51°54' E 004°34'0 0.0
2014-Sep-02 15:23N 51°54' E 004°34'0 0.0
2014-Sep-02 14:20N 51°54' E 004°34'0 0.0
2014-Sep-02 13:17N 51°54' E 004°34'0 0.0
2014-Sep-02 12:32N 51°54' E 004°34'0 0.0
2014-Sep-02 11:20N 51°54' E 004°34'0 0.0
2014-Sep-02 10:11N 51°54' E 004°34'0 0.0
2014-Sep-02 09:23N 51°54' E 004°34'0 0.0
2014-Sep-02 08:26N 51°54' E 004°34'0 0.0
2014-Sep-02 07:29N 51°54' E 004°34'0 0.0
2014-Sep-02 06:26N 51°54' E 004°34'0 0.0
2014-Sep-02 05:26N 51°54' E 004°34'0 0.0
2014-Sep-02 04:29N 51°54' E 004°34'0 0.0
2014-Sep-02 03:29N 51°54' E 004°34'0 0.2
2014-Sep-02 02:31N 51°54' E 004°35'3 3.4
2014-Sep-02 01:33N 51°54' E 004°29'3 3.0
2014-Sep-02 00:23N 51°54' E 004°24'0 0.0
2014-Sep-01 23:14N 51°54' E 004°24'0 0.0
2014-Sep-01 22:26N 51°54' E 004°24'0 0.0
2014-Sep-01 20:26N 51°54' E 004°24'0 0.0
2014-Sep-01 17:19N 51°54' E 004°24'0 0.0
2014-Sep-01 06:31N 51°54' E 004°24'0 0.0
2014-Sep-01 05:13N 51°54' E 004°24'0 0.0
2014-Sep-01 04:28N 51°54' E 004°24'0 0.0
2014-Sep-01 03:13N 51°54' E 004°24'0 0.0
2014-Sep-01 02:25N 51°54' E 004°24'0 0.0
2014-Sep-01 01:04N 51°54' E 004°24'0 0.0
2014-Sep-01 00:25N 51°54' E 004°24'0 0.0
2014-Aug-31 23:31N 51°54' E 004°24'0 0.0
2014-Aug-31 22:31N 51°54' E 004°24'0 0.0
2014-Aug-31 21:31N 51°54' E 004°24'0 0.0
2014-Aug-31 20:13N 51°54' E 004°24'0 0.0
2014-Aug-31 18:28N 51°54' E 004°24'0 0.0
2014-Aug-31 17:16N 51°54' E 004°24'0 0.0
2014-Aug-31 16:28N 51°54' E 004°24'0 0.0
2014-Aug-31 11:13N 51°54' E 004°24'0 0.0
2014-Aug-31 07:31N 51°54' E 004°24'0 0.0
2014-Aug-31 06:33N 51°54' E 004°24'0 0.0
2014-Aug-31 05:33N 51°54' E 004°24'0 0.0
2014-Aug-31 04:27N 51°54' E 004°24'0 0.0
2014-Aug-31 02:30N 51°54' E 004°24'0 0.0
2014-Aug-31 01:30N 51°54' E 004°24'4 4.6
2014-Aug-31 00:33N 51°54' E 004°17'8 8.3
2014-Aug-30 23:33N 51°59' E 004°06'9 8.9
2014-Aug-30 22:33N 52°01' E 003°52'10 9.7
2014-Aug-30 21:33N 52°10' E 003°46'2410.3
2014-Aug-30 19:16N 52°33' E 003°52'90 9.2
2014-Aug-30 09:33N 53°56' E 004°52'8 8.2
2014-Aug-30 08:33N 54°03' E 004°56'280 9.7
2014-Aug-29 03:33N 57°45' E 010°02'1111.1
2014-Aug-29 02:33N 57°48' E 010°22'1110.9
2014-Aug-29 01:33N 57°49' E 010°42'1611.0
2014-Aug-29 00:04N 57°39' E 011°06'611.5
2014-Aug-28 23:33N 57°35' E 011°13'1111.2
2014-Aug-28 22:33N 57°27' E 011°27'1110.5
2014-Aug-28 21:33N 57°17' E 011°34'2110.4
2014-Aug-28 19:34N 56°57' E 011°47'1010.0
2014-Aug-28 18:33N 56°48' E 011°54'1110.4
2014-Aug-28 17:32N 56°38' E 011°59'1010.2
2014-Aug-28 16:32N 56°28' E 012°06'1010.3
2014-Aug-28 15:33N 56°20' E 012°16'1010.3
2014-Aug-28 14:33N 56°11' E 012°27'1211.5
2014-Aug-28 13:33N 56°02' E 012°40'1110.8
2014-Aug-28 12:33N 55°52' E 012°44'1111.2
2014-Aug-28 11:33N 55°41' E 012°41'1111.0
2014-Aug-28 10:33N 55°30' E 012°43'1110.6
2014-Aug-28 09:33N 55°19' E 012°42'1010.1
2014-Aug-28 08:31N 55°15' E 012°59'1010.4
2014-Aug-28 07:32N 55°15' E 013°17'1210.4
2014-Aug-28 06:23N 55°14' E 013°38'910.4
2014-Aug-28 05:32N 55°14' E 013°53'1110.8
2014-Aug-28 04:29N 55°13' E 014°13'1010.7
2014-Aug-28 03:33N 55°21' E 014°25'1110.9
2014-Aug-28 02:33N 55°28' E 014°38'1010.5
2014-Aug-28 01:33N 55°34' E 014°54'2210.7
2014-Aug-27 23:32N 55°45' E 015°28'1110.9
2014-Aug-27 22:30N 55°50' E 015°45'99 9.9
2014-Aug-27 12:34N 57°11' E 017°27'1010.0
2014-Aug-27 11:33N 57°21' E 017°34'1110.1
2014-Aug-27 10:25N 57°31' E 017°41'  
Track history (hours):
 
Tides and Currents Weather Stations Pressure Air Temp Water Temp Dewpoint Dewpoint Depression Visibility Wind Speed Wind Dir Waves Ship Positions

Arklow Spray

Last reported at 2014-Sep-03 04:26 UTC. Time now 2014-Sep-03 04:46 UTC.
Position N 51°54' E 004°34'.

Length 90 m; draft 4.9 m.

Type: Cargo ship. MMSI: 309914000.

Date/timePositionNaut miles runAvg speedWind from/ knotsBaromVisibWave heightAir tempDewpointWater temp
2014-Sep-03 04:26N 51°54' E 004°34'0 0.0
2014-Sep-03 03:29N 51°54' E 004°34'0 0.0
2014-Sep-03 02:29N 51°54' E 004°34'0 0.0
2014-Sep-03 01:29N 51°54' E 004°34'0 0.0
2014-Sep-03 00:32N 51°54' E 004°34'0 0.0
2014-Sep-02 23:29N 51°54' E 004°34'0 0.0
2014-Sep-02 22:32N 51°54' E 004°34'0 0.0
2014-Sep-02 21:32N 51°54' E 004°34'0 0.0
2014-Sep-02 20:32N 51°54' E 004°34'0 0.0
2014-Sep-02 19:32N 51°54' E 004°34'0 0.0
2014-Sep-02 18:32N 51°54' E 004°34'0 0.0
2014-Sep-02 17:32N 51°54' E 004°34'0 0.0
2014-Sep-02 16:32N 51°54' E 004°34'0 0.0
2014-Sep-02 15:23N 51°54' E 004°34'0 0.0
2014-Sep-02 14:20N 51°54' E 004°34'0 0.0
2014-Sep-02 13:17N 51°54' E 004°34'0 0.0
2014-Sep-02 12:32N 51°54' E 004°34'0 0.0
2014-Sep-02 11:20N 51°54' E 004°34'0 0.0
2014-Sep-02 10:11N 51°54' E 004°34'0 0.0
2014-Sep-02 09:23N 51°54' E 004°34'0 0.0
2014-Sep-02 08:26N 51°54' E 004°34'0 0.0
2014-Sep-02 07:29N 51°54' E 004°34'0 0.0
2014-Sep-02 06:26N 51°54' E 004°34'0 0.0
2014-Sep-02 05:26N 51°54' E 004°34'0 0.0
2014-Sep-02 04:29N 51°54' E 004°34'0 0.0
2014-Sep-02 03:29N 51°54' E 004°34'0 0.2
2014-Sep-02 02:31N 51°54' E 004°35'3 3.4
2014-Sep-02 01:33N 51°54' E 004°29'3 3.0
2014-Sep-02 00:23N 51°54' E 004°24'0 0.0
2014-Sep-01 23:14N 51°54' E 004°24'0 0.0
2014-Sep-01 22:26N 51°54' E 004°24'0 0.0
2014-Sep-01 20:26N 51°54' E 004°24'0 0.0
2014-Sep-01 17:19N 51°54' E 004°24'0 0.0
2014-Sep-01 06:31N 51°54' E 004°24'0 0.0
2014-Sep-01 05:13N 51°54' E 004°24'0 0.0
2014-Sep-01 04:28N 51°54' E 004°24'0 0.0
2014-Sep-01 03:13N 51°54' E 004°24'0 0.0
2014-Sep-01 02:25N 51°54' E 004°24'0 0.0
2014-Sep-01 01:04N 51°54' E 004°24'0 0.0
2014-Sep-01 00:25N 51°54' E 004°24'0 0.0
2014-Aug-31 23:31N 51°54' E 004°24'0 0.0
2014-Aug-31 22:31N 51°54' E 004°24'0 0.0
2014-Aug-31 21:31N 51°54' E 004°24'0 0.0
2014-Aug-31 20:13N 51°54' E 004°24'0 0.0
2014-Aug-31 18:28N 51°54' E 004°24'0 0.0
2014-Aug-31 17:16N 51°54' E 004°24'0 0.0
2014-Aug-31 16:28N 51°54' E 004°24'0 0.0
2014-Aug-31 11:13N 51°54' E 004°24'0 0.0
2014-Aug-31 07:31N 51°54' E 004°24'0 0.0
2014-Aug-31 06:33N 51°54' E 004°24'0 0.0
2014-Aug-31 05:33N 51°54' E 004°24'0 0.0
2014-Aug-31 04:27N 51°54' E 004°24'0 0.0
2014-Aug-31 02:30N 51°54' E 004°24'0 0.0
2014-Aug-31 01:30N 51°54' E 004°24'4 4.6
2014-Aug-31 00:33N 51°54' E 004°17'8 8.3
2014-Aug-30 23:33N 51°59' E 004°06'9 8.9
2014-Aug-30 22:33N 52°01' E 003°52'10 9.7
2014-Aug-30 21:33N 52°10' E 003°46'2410.3
2014-Aug-30 19:16N 52°33' E 003°52'90 9.2
2014-Aug-30 09:33N 53°56' E 004°52'8 8.2
2014-Aug-30 08:33N 54°03' E 004°56'280 9.7
2014-Aug-29 03:33N 57°45' E 010°02'1111.1
2014-Aug-29 02:33N 57°48' E 010°22'1110.9
2014-Aug-29 01:33N 57°49' E 010°42'1611.0
2014-Aug-29 00:04N 57°39' E 011°06'611.5
2014-Aug-28 23:33N 57°35' E 011°13'1111.2
2014-Aug-28 22:33N 57°27' E 011°27'1110.5
2014-Aug-28 21:33N 57°17' E 011°34'2110.4
2014-Aug-28 19:34N 56°57' E 011°47'1010.0
2014-Aug-28 18:33N 56°48' E 011°54'1110.4
2014-Aug-28 17:32N 56°38' E 011°59'1010.2
2014-Aug-28 16:32N 56°28' E 012°06'1010.3
2014-Aug-28 15:33N 56°20' E 012°16'1010.3
2014-Aug-28 14:33N 56°11' E 012°27'1211.5
2014-Aug-28 13:33N 56°02' E 012°40'1110.8
2014-Aug-28 12:33N 55°52' E 012°44'1111.2
2014-Aug-28 11:33N 55°41' E 012°41'1111.0
2014-Aug-28 10:33N 55°30' E 012°43'1110.6
2014-Aug-28 09:33N 55°19' E 012°42'1010.1
2014-Aug-28 08:31N 55°15' E 012°59'1010.4
2014-Aug-28 07:32N 55°15' E 013°17'1210.4
2014-Aug-28 06:23N 55°14' E 013°38'910.4
2014-Aug-28 05:32N 55°14' E 013°53'1110.8
2014-Aug-28 04:29N 55°13' E 014°13'1010.7
2014-Aug-28 03:33N 55°21' E 014°25'1110.9
2014-Aug-28 02:33N 55°28' E 014°38'1010.5
2014-Aug-28 01:33N 55°34' E 014°54'2210.7
2014-Aug-27 23:32N 55°45' E 015°28'1110.9
2014-Aug-27 22:30N 55°50' E 015°45'99 9.9
2014-Aug-27 12:34N 57°11' E 017°27'1010.0
2014-Aug-27 11:33N 57°21' E 017°34'1110.1
2014-Aug-27 10:25N 57°31' E 017°41'  

Dump ship's entire track history